Time;durP1;ratioP1;P1;durP2;ratioP2;P2;SDS_P1;SDS_P2;PMS_P1;PMS_P2;Temp;Humidity;BMP_temperature;BMP_pressure;BME280_temperature;BME280_humidity;BME280_pressure;Samples;Min_cycle;Max_cycle;Signal;HPM_P1;HPM_P2
2022/07/17 00:01:53;;;;;;;32.63;21.87;;;;;;;15.23;97.97;97026.97;5054596;28;20029;-78
2022/07/17 00:04:19;;;;;;;22.80;14.33;;;;;;;15.28;97.11;97029.94;5078228;28;20047;-78
2022/07/17 00:06:45;;;;;;;19.67;12.43;;;;;;;15.31;96.58;97024.28;5070177;28;20150;-78
2022/07/17 00:09:12;;;;;;;15.47;8.40;;;;;;;15.29;96.99;97025.44;5052012;28;20424;-79
2022/07/17 00:11:37;;;;;;;8.77;4.37;;;;;;;15.09;97.86;97031.16;5041705;28;20024;-79
2022/07/17 00:14:06;;;;;;;7.73;4.10;;;;;;;14.92;99.37;97031.31;5057868;28;20024;-78
2022/07/17 00:16:32;;;;;;;7.90;3.83;;;;;;;14.88;99.47;97028.16;5055669;28;20039;-79
2022/07/17 00:18:58;;;;;;;5.97;3.87;;;;;;;14.93;98.92;97032.97;5052386;28;20641;-78
2022/07/17 00:21:23;;;;;;;11.83;4.87;;;;;;;15.00;99.19;97033.97;5051690;28;20563;-78
2022/07/17 00:23:49;;;;;;;10.50;6.17;;;;;;;14.56;100.00;97023.72;5043813;28;20051;-78
2022/07/17 00:26:15;;;;;;;18.33;8.97;;;;;;;14.66;100.00;97032.31;5039665;28;20145;-78
2022/07/17 00:28:41;;;;;;;38.20;22.63;;;;;;;14.85;100.00;97031.16;5075411;28;20056;-79
2022/07/17 00:31:07;;;;;;;12.37;7.27;;;;;;;14.80;100.00;97030.84;5046856;28;20016;-78
2022/07/17 00:33:33;;;;;;;10.73;3.60;;;;;;;14.57;100.00;97028.84;5044587;28;20516;-78
2022/07/17 00:36:00;;;;;;;7.53;3.97;;;;;;;14.63;100.00;97034.47;5056272;28;20091;-78
2022/07/17 00:38:25;;;;;;;12.03;6.93;;;;;;;14.34;100.00;97033.09;5059249;28;20517;-78
2022/07/17 00:40:56;;;;;;;14.93;8.40;;;;;;;14.49;100.00;97035.94;5045407;28;20028;-79
2022/07/17 00:43:23;;;;;;;12.00;6.73;;;;;;;14.57;100.00;97038.59;5035937;28;20040;-78
2022/07/17 00:45:59;;;;;;;9.37;5.77;;;;;;;14.59;100.00;97040.09;5070986;28;20040;-78
2022/07/17 00:48:26;;;;;;;6.80;4.07;;;;;;;14.39;100.00;97036.06;5049744;28;20448;-78
2022/07/17 00:50:53;;;;;;;6.23;4.07;;;;;;;14.43;100.00;97041.88;5047312;28;20504;-79
2022/07/17 00:53:18;;;;;;;7.87;4.13;;;;;;;14.46;100.00;97034.44;5063942;28;20032;-78
2022/07/17 00:55:47;;;;;;;6.27;4.20;;;;;;;14.41;100.00;97027.97;5069418;28;20048;-79
2022/07/17 00:58:23;;;;;;;8.03;4.43;;;;;;;14.48;100.00;97031.59;5050114;28;20032;-79
2022/07/17 01:00:51;;;;;;;10.53;4.30;;;;;;;14.34;100.00;97039.19;5064288;28;20032;-78
2022/07/17 01:03:18;;;;;;;10.53;5.43;;;;;;;14.34;100.00;97035.72;5034987;28;20032;-78
2022/07/17 01:05:44;;;;;;;8.63;5.53;;;;;;;14.44;100.00;97032.94;5059593;28;20028;-79
2022/07/17 01:08:10;;;;;;;6.27;3.87;;;;;;;14.38;100.00;97034.41;5046585;28;20513;-78
2022/07/17 01:10:36;;;;;;;7.47;4.40;;;;;;;14.32;100.00;97035.06;5071401;28;20668;-79
2022/07/17 01:13:03;;;;;;;7.73;5.13;;;;;;;14.11;100.00;97035.50;5059648;28;20082;-79
2022/07/17 01:15:29;;;;;;;9.23;5.40;;;;;;;14.05;100.00;97038.78;5044287;28;20036;-80
2022/07/17 01:17:55;;;;;;;8.27;4.37;;;;;;;14.23;100.00;97039.50;5059007;28;20052;-80
2022/07/17 01:20:21;;;;;;;6.70;4.37;;;;;;;13.99;100.00;97036.81;5058413;28;20070;-79
2022/07/17 01:22:49;;;;;;;6.63;4.37;;;;;;;13.95;100.00;97033.66;5055272;28;20032;-79
2022/07/17 01:25:18;;;;;;;11.77;4.00;;;;;;;13.90;100.00;97041.25;5066364;28;20032;-81
2022/07/17 01:27:44;;;;;;;8.20;3.93;;;;;;;14.04;100.00;97032.69;5041802;28;20016;-79
2022/07/17 01:30:10;;;;;;;5.80;3.33;;;;;;;14.01;100.00;97029.53;5073112;28;20028;-79
2022/07/17 01:32:38;;;;;;;6.10;3.50;;;;;;;13.95;100.00;97035.47;5048246;28;20036;-78
2022/07/17 01:35:05;;;;;;;7.33;3.53;;;;;;;14.04;100.00;97030.03;5059175;28;20032;-79
2022/07/17 01:37:31;;;;;;;6.77;3.63;;;;;;;13.95;100.00;97035.47;5052326;28;20157;-79
2022/07/17 01:39:57;;;;;;;9.87;4.47;;;;;;;13.70;100.00;97037.19;5052611;28;20585;-78
2022/07/17 01:42:25;;;;;;;7.27;4.43;;;;;;;13.43;100.00;97042.53;5056649;28;20028;-79
2022/07/17 01:44:51;;;;;;;8.57;4.67;;;;;;;13.37;100.00;97037.88;5070595;28;20033;-79
2022/07/17 01:47:18;;;;;;;7.73;4.50;;;;;;;13.56;100.00;97036.00;5054305;28;20062;-79
2022/07/17 01:49:49;;;;;;;8.70;4.90;;;;;;;13.52;100.00;97034.66;5041716;28;20037;-79
2022/07/17 01:52:15;;;;;;;9.53;4.90;;;;;;;13.47;100.00;97042.22;5034977;28;20506;-79
2022/07/17 01:54:41;;;;;;;8.80;4.20;;;;;;;13.55;100.00;97039.63;5061705;28;20123;-79
2022/07/17 01:57:08;;;;;;;11.03;5.20;;;;;;;13.59;100.00;97035.66;5069347;28;20692;-79
2022/07/17 01:59:34;;;;;;;7.77;5.10;;;;;;;13.47;100.00;97036.94;5045653;28;20060;-79
2022/07/17 02:02:00;;;;;;;9.13;4.70;;;;;;;13.29;100.00;97043.09;5055033;28;20067;-79
2022/07/17 02:04:27;;;;;;;6.53;4.07;;;;;;;13.32;100.00;97040.16;5036516;28;20040;-79
2022/07/17 02:06:55;;;;;;;6.20;4.17;;;;;;;13.19;100.00;97034.44;5041806;28;20031;-80
2022/07/17 02:09:22;;;;;;;7.27;5.10;;;;;;;13.13;100.00;97029.78;5055024;28;20020;-79
2022/07/17 02:11:47;;;;;;;9.30;5.30;;;;;;;13.23;100.00;97034.94;5061430;28;20047;-79
2022/07/17 02:14:13;;;;;;;8.80;4.60;;;;;;;13.26;100.00;97034.66;5071026;28;20650;-79
2022/07/17 02:16:39;;;;;;;7.20;4.00;;;;;;;13.26;100.00;97034.66;5054008;28;20106;-79
2022/07/17 02:19:04;;;;;;;8.97;4.50;;;;;;;13.32;100.00;97032.22;5079310;28;20650;-79
2022/07/17 02:21:30;;;;;;;6.90;4.57;;;;;;;13.40;100.00;97034.91;5049892;28;20391;-79
2022/07/17 02:23:58;;;;;;;8.10;4.80;;;;;;;13.36;100.00;97030.94;5052701;28;20068;-79
2022/07/17 02:26:23;;;;;;;9.40;4.77;;;;;;;13.28;100.00;97032.69;5051891;28;20032;-79
2022/07/17 02:28:49;;;;;;;7.60;4.40;;;;;;;13.26;100.00;97032.84;5044561;28;20105;-79
2022/07/17 02:31:16;;;;;;;6.43;3.77;;;;;;;13.33;100.00;97039.16;5065520;28;20505;-78
2022/07/17 02:33:42;;;;;;;7.10;3.80;;;;;;;13.32;100.00;97034.88;5058333;28;20086;-78
2022/07/17 02:36:08;;;;;;;6.23;4.00;;;;;;;13.13;100.00;97024.50;5048299;28;20091;-79
2022/07/17 02:38:33;;;;;;;9.10;4.03;;;;;;;13.13;100.00;97024.50;5035895;28;20036;-79
2022/07/17 02:40:59;;;;;;;6.53;3.70;;;;;;;13.21;100.00;97024.53;5049632;28;20506;-79
2022/07/17 02:43:25;;;;;;;7.63;4.00;;;;;;;13.10;100.00;97024.81;5059430;28;20043;-79
2022/07/17 02:45:51;;;;;;;6.17;3.77;;;;;;;13.00;100.00;97027.53;5052586;28;20032;-79
2022/07/17 02:48:18;;;;;;;6.20;3.60;;;;;;;13.08;100.00;97024.16;5036698;28;20033;-79
2022/07/17 02:50:43;;;;;;;6.67;3.60;;;;;;;13.03;100.00;97021.13;5076955;28;20029;-79
2022/07/17 02:53:09;;;;;;;5.83;3.97;;;;;;;13.11;100.00;97023.81;5062449;28;20027;-79
2022/07/17 02:55:35;;;;;;;6.50;3.27;;;;;;;13.07;100.00;97014.53;5042772;28;20541;-79
2022/07/17 02:58:00;;;;;;;6.93;3.80;;;;;;;12.92;100.00;97017.75;5037097;28;20036;-81
2022/07/17 03:00:26;;;;;;;5.67;3.57;;;;;;;12.88;100.00;97024.34;5066512;28;20131;-79
2022/07/17 03:02:55;;;;;;;6.97;3.80;;;;;;;12.83;100.00;97017.84;5066763;28;20104;-79
2022/07/17 03:05:20;;;;;;;6.47;3.87;;;;;;;12.86;100.00;97012.25;5059386;28;20040;-80
2022/07/17 03:07:46;;;;;;;8.80;4.23;;;;;;;12.91;100.00;97010.81;5070726;28;20032;-79
2022/07/17 03:10:18;;;;;;;7.90;3.80;;;;;;;12.81;100.00;97003.97;5071498;28;20028;-79
2022/07/17 03:12:43;;;;;;;7.63;3.50;;;;;;;12.79;100.00;97014.69;5074713;28;20036;-79
2022/07/17 03:15:10;;;;;;;6.50;3.63;;;;;;;12.52;100.00;97009.53;5037528;28;20078;-80
2022/07/17 03:17:38;;;;;;;7.90;4.10;;;;;;;12.46;100.00;97010.97;5075972;28;20119;-79
2022/07/17 03:20:04;;;;;;;7.20;4.10;;;;;;;12.36;100.00;97013.69;5060741;28;20495;-79
2022/07/17 03:22:30;;;;;;;5.80;3.80;;;;;;;12.39;100.00;97017.81;5048149;28;20142;-80
2022/07/17 03:24:56;;;;;;;6.93;4.27;;;;;;;12.30;100.00;97018.72;5072888;28;20044;-79
2022/07/17 03:27:21;;;;;;;7.23;3.83;;;;;;;12.39;100.00;97010.75;5058917;28;20592;-79
2022/07/17 03:29:47;;;;;;;7.03;4.03;;;;;;;12.42;100.00;97014.88;5058100;28;20099;-79
2022/07/17 03:32:15;;;;;;;5.63;3.60;;;;;;;12.51;100.00;97016.63;5061898;28;20528;-79
2022/07/17 03:34:41;;;;;;;9.10;3.77;;;;;;;12.43;100.00;97025.28;5039312;28;20124;-79
2022/07/17 03:37:07;;;;;;;6.50;3.70;;;;;;;12.37;100.00;97027.69;5047384;28;20051;-79
2022/07/17 03:39:36;;;;;;;8.00;4.10;;;;;;;12.38;100.00;97022.28;5053579;28;20211;-79
2022/07/17 03:42:02;;;;;;;6.93;4.13;;;;;;;12.13;100.00;97029.09;5067474;28;20040;-80
2022/07/17 03:44:28;;;;;;;8.83;4.53;;;;;;;12.06;100.00;97025.41;5044440;28;20515;-79
2022/07/17 03:46:54;;;;;;;7.00;4.60;;;;;;;11.79;100.00;97028.88;5071759;28;20034;-79
2022/07/17 03:49:20;;;;;;;8.23;4.80;;;;;;;11.81;100.00;97032.22;5056970;28;20043;-79
2022/07/17 03:51:45;;;;;;;6.77;4.27;;;;;;;11.91;100.00;97027.75;5048962;28;20039;-79
2022/07/17 03:54:12;;;;;;;8.87;4.50;;;;;;;11.87;100.00;97028.16;5072990;28;20032;-79
2022/07/17 03:56:38;;;;;;;7.23;4.43;;;;;;;11.84;100.00;97036.34;5068272;28;20040;-79
2022/07/17 03:59:03;;;;;;;7.60;4.17;;;;;;;11.83;100.00;97032.03;5058180;28;20051;-78
2022/07/17 04:01:29;;;;;;;5.77;3.80;;;;;;;11.83;100.00;97030.25;5056343;28;20032;-79
2022/07/17 04:03:55;;;;;;;7.17;3.60;;;;;;;11.84;100.00;97034.59;5072070;28;20035;-79
2022/07/17 04:06:20;;;;;;;7.17;3.93;;;;;;;11.99;100.00;97030.44;5051611;28;20033;-79
2022/07/17 04:08:46;;;;;;;6.07;3.80;;;;;;;12.05;100.00;97033.50;5061006;28;20774;-79
2022/07/17 04:11:12;;;;;;;7.53;4.10;;;;;;;12.05;100.00;97036.13;5052682;28;20025;-79
2022/07/17 04:13:40;;;;;;;5.83;3.60;;;;;;;11.90;100.00;97027.88;5054509;28;20020;-79
2022/07/17 04:16:05;;;;;;;5.57;3.57;;;;;;;12.05;100.00;97034.31;5048068;28;20025;-79
2022/07/17 04:18:34;;;;;;;8.03;3.40;;;;;;;12.24;100.00;97038.63;5060766;28;20105;-79
2022/07/17 04:21:04;;;;;;;6.90;3.77;;;;;;;12.13;100.00;97041.47;5069435;28;20028;-78
2022/07/17 04:23:31;;;;;;;6.30;3.37;;;;;;;12.26;100.00;97040.13;5048928;28;20576;-78
2022/07/17 04:25:57;;;;;;;6.07;3.53;;;;;;;12.37;100.00;97032.97;5032890;28;20127;-79
2022/07/17 04:28:22;;;;;;;5.63;3.23;;;;;;;12.25;100.00;97029.75;5052119;28;20031;-80
2022/07/17 04:30:51;;;;;;;5.10;3.20;;;;;;;12.30;100.00;97034.56;5072950;28;20427;-79
2022/07/17 04:33:17;;;;;;;5.70;3.33;;;;;;;12.36;100.00;97040.06;5062813;28;20558;-78
2022/07/17 04:35:43;;;;;;;9.00;3.80;;;;;;;12.26;100.00;97039.28;5054988;28;20117;-78
2022/07/17 04:38:10;;;;;;;8.63;3.47;;;;;;;12.34;100.00;97035.91;5049507;28;20497;-78
2022/07/17 04:40:38;;;;;;;5.37;3.13;;;;;;;12.27;100.00;97040.94;5066949;28;20117;-78
2022/07/17 04:43:06;;;;;;;7.53;3.70;;;;;;;12.52;100.00;97044.66;5053561;28;20497;-79
2022/07/17 04:45:33;;;;;;;4.93;3.00;;;;;;;12.59;100.00;97042.25;5052709;28;20087;-78
2022/07/17 04:47:59;;;;;;;6.83;3.60;;;;;;;12.66;100.00;97036.19;5047141;28;20036;-79
2022/07/17 04:50:30;;;;;;;5.90;3.07;;;;;;;12.77;100.00;97037.75;5051794;28;20020;-78
2022/07/17 04:52:57;;;;;;;6.90;3.73;;;;;;;12.95;100.00;97043.84;5036896;28;20082;-79
2022/07/17 04:55:23;;;;;;;7.20;3.57;;;;;;;13.03;100.00;97052.81;5073910;28;20037;-82
2022/07/17 04:57:49;;;;;;;4.63;3.10;;;;;;;13.03;100.00;97050.16;5034713;28;20085;-78
2022/07/17 05:00:15;;;;;;;7.63;3.37;;;;;;;13.18;100.00;97053.91;5051165;28;20497;-79
2022/07/17 05:02:41;;;;;;;7.87;3.90;;;;;;;13.19;100.00;97051.09;5054060;28;20032;-79
2022/07/17 05:05:07;;;;;;;8.87;3.63;;;;;;;13.29;100.00;97048.41;5070358;28;20028;-79
2022/07/17 05:07:33;;;;;;;6.87;3.00;;;;;;;13.43;100.00;97046.97;5071349;28;20028;-78
2022/07/17 05:09:59;;;;;;;8.77;3.73;;;;;;;13.48;100.00;97044.72;5051315;28;20024;-79
2022/07/17 05:12:24;;;;;;;6.57;3.20;;;;;;;13.56;100.00;97050.03;5045608;28;20098;-78
2022/07/17 05:14:50;;;;;;;5.93;3.30;;;;;;;13.61;100.00;97052.19;5068372;28;20102;-78
2022/07/17 05:17:16;;;;;;;6.03;3.27;;;;;;;13.80;100.00;97043.19;5045504;28;20047;-80
2022/07/17 05:19:42;;;;;;;5.30;2.83;;;;;;;13.77;100.00;97046.97;5055599;28;20033;-78
2022/07/17 05:22:08;;;;;;;6.77;2.37;;;;;;;13.98;100.00;97045.72;5075309;28;20024;-79
2022/07/17 05:24:34;;;;;;;5.10;3.10;;;;;;;14.08;100.00;97046.41;5034836;28;20097;-79
2022/07/17 05:27:06;;;;;;;6.50;2.83;;;;;;;14.35;100.00;97043.53;5038121;28;20032;-79
2022/07/17 05:29:33;;;;;;;7.00;2.90;;;;;;;14.38;98.47;97043.19;5052980;28;20125;-79
2022/07/17 05:31:59;;;;;;;6.53;3.17;;;;;;;14.63;97.88;97040.59;5071517;28;20032;-79
2022/07/17 05:34:25;;;;;;;4.53;2.70;;;;;;;14.75;96.96;97052.50;5071010;28;20090;-79
2022/07/17 05:36:50;;;;;;;5.27;3.27;;;;;;;14.94;95.59;97050.53;5048457;28;20110;-79
2022/07/17 05:39:16;;;;;;;8.57;3.30;;;;;;;15.25;93.93;97040.03;5042949;28;20085;-79
2022/07/17 05:41:42;;;;;;;4.50;2.80;;;;;;;15.41;92.29;97047.97;5035787;28;20029;-79
2022/07/17 05:44:08;;;;;;;4.73;2.90;;;;;;;15.35;91.87;97050.47;5064372;28;20044;-79
2022/07/17 05:46:34;;;;;;;5.60;2.70;;;;;;;15.47;90.92;97046.47;5032118;28;20051;-79
2022/07/17 05:48:59;;;;;;;4.87;2.60;;;;;;;15.83;90.30;97040.72;5040149;28;20037;-79
2022/07/17 05:51:26;;;;;;;4.80;2.77;;;;;;;15.84;89.37;97039.75;5041604;28;20074;-79
2022/07/17 05:53:52;;;;;;;4.10;2.30;;;;;;;16.05;87.72;97039.97;5060553;28;20029;-79
2022/07/17 05:56:18;;;;;;;5.63;2.90;;;;;;;15.85;88.76;97042.22;5035885;28;20040;-79
2022/07/17 05:58:43;;;;;;;9.77;5.30;;;;;;;16.14;87.03;97041.56;5059583;28;20036;-79
2022/07/17 06:01:09;;;;;;;4.43;2.57;;;;;;;16.70;83.34;97042.22;5075520;28;20032;-79
2022/07/17 06:03:35;;;;;;;6.10;2.63;;;;;;;17.13;80.70;97039.03;5059942;28;20036;-78
2022/07/17 06:06:04;;;;;;;4.40;2.50;;;;;;;17.02;80.80;97040.31;5035543;28;20085;-79
2022/07/17 06:08:29;;;;;;;6.80;2.63;;;;;;;17.19;79.93;97033.00;5037580;28;20679;-79
2022/07/17 06:10:55;;;;;;;3.77;2.53;;;;;;;17.45;76.24;97037.91;5031560;28;20064;-79
2022/07/17 06:13:21;;;;;;;10.03;3.17;;;;;;;17.70;76.43;97038.44;5043599;28;21950;-80
2022/07/17 06:15:48;;;;;;;6.80;2.47;;;;;;;17.99;75.32;97037.63;5054502;28;20033;-80
2022/07/17 06:18:13;;;;;;;7.23;2.70;;;;;;;18.27;70.37;97036.91;5061245;28;20028;-80
2022/07/17 06:20:40;;;;;;;3.20;2.03;;;;;;;18.23;70.14;97038.31;5057663;28;20036;-79
2022/07/17 06:23:09;;;;;;;4.63;2.80;;;;;;;18.26;68.14;97036.09;5049577;28;20212;-78
2022/07/17 06:25:37;;;;;;;4.43;2.13;;;;;;;18.35;67.38;97045.63;5056051;28;20073;-79
2022/07/17 06:28:09;;;;;;;5.05;2.70;;;;;;;18.61;66.70;97038.91;5055997;28;20033;-79
2022/07/17 06:30:35;;;;;;;4.53;2.35;;;;;;;19.08;63.14;97043.69;5033598;28;20405;-79
2022/07/17 06:33:01;;;;;;;5.88;2.33;;;;;;;19.35;62.66;97043.88;5075100;28;20022;-80
2022/07/17 06:35:28;;;;;;;4.80;2.20;;;;;;;20.12;59.13;97039.38;5052606;28;20094;-79
2022/07/17 06:37:53;;;;;;;5.13;2.50;;;;;;;19.92;60.65;97042.81;5056878;28;20088;-79
2022/07/17 06:40:19;;;;;;;7.65;2.95;;;;;;;20.09;58.18;97034.47;5048771;28;20458;-79
2022/07/17 06:42:46;;;;;;;20.13;9.48;;;;;;;20.56;56.31;97046.97;5040401;28;20017;-80
2022/07/17 06:45:12;;;;;;;8.82;3.38;;;;;;;21.09;54.40;97052.38;5075593;28;20029;-79
2022/07/17 06:47:38;;;;;;;5.38;2.50;;;;;;;20.81;54.41;97044.53;5047582;28;20028;-79
2022/07/17 06:50:04;;;;;;;28.75;9.73;;;;;;;;;;5040520;28;20028;-79
2022/07/17 06:52:30;;;;;;;69.20;28.50;;;;;;;21.34;52.87;97054.41;5040612;28;20501;-79
2022/07/17 06:54:55;;;;;;;83.93;51.60;;;;;;;21.48;52.13;97055.25;5064184;28;20063;-79
2022/07/17 06:57:21;;;;;;;26.42;9.95;;;;;;;21.75;50.43;97039.97;5052385;28;20043;-79
2022/07/17 06:59:49;;;;;;;33.67;11.85;;;;;;;21.98;50.57;97055.53;5043471;28;20052;-78
2022/07/17 07:02:14;;;;;;;13.15;5.60;;;;;;;22.30;48.93;97049.28;5034871;28;20115;-78
2022/07/17 07:04:40;;;;;;;10.45;3.38;;;;;;;22.13;46.92;97048.06;5050108;28;20435;-78
2022/07/17 07:07:06;;;;;;;6.15;2.35;;;;;;;22.91;45.88;97049.75;5056836;28;20489;-78
2022/07/17 07:09:32;;;;;;;4.50;2.05;;;;;;;22.70;46.98;97054.41;5078708;28;20028;-77
2022/07/17 07:11:58;;;;;;;7.00;3.42;;;;;;;22.96;47.45;97047.25;5052404;28;20405;-78
2022/07/17 07:14:24;;;;;;;5.25;2.50;;;;;;;23.42;45.49;97048.72;5040455;28;20029;-78
2022/07/17 07:16:52;;;;;;;6.50;3.47;;;;;;;23.97;44.41;97040.75;5077944;28;20032;-79
2022/07/17 07:19:17;;;;;;;3.60;1.98;;;;;;;23.56;44.87;97052.91;5035158;28;20036;-78
2022/07/17 07:21:43;;;;;;;6.13;2.72;;;;;;;24.59;43.28;97046.81;5051849;28;20047;-78
2022/07/17 07:24:09;;;;;;;6.25;2.33;;;;;;;23.85;43.35;97051.44;5049844;28;20028;-78
2022/07/17 07:26:35;;;;;;;4.88;2.40;;;;;;;24.11;42.79;97052.16;5065377;28;20025;-76
2022/07/17 07:29:01;;;;;;;8.05;2.10;;;;;;;24.12;42.58;97049.25;5088056;28;20587;-78
2022/07/17 07:31:26;;;;;;;3.92;2.00;;;;;;;24.76;42.08;97041.59;5062434;28;20139;-78
2022/07/17 07:33:52;;;;;;;8.07;2.97;;;;;;;24.60;42.88;97043.06;5071460;28;20032;-78
2022/07/17 07:36:18;;;;;;;5.20;2.53;;;;;;;24.54;41.95;97037.78;5075178;28;20036;-78
2022/07/17 07:38:45;;;;;;;3.67;2.03;;;;;;;25.68;40.65;97045.69;5072377;28;20139;-78
2022/07/17 07:41:11;;;;;;;4.45;2.05;;;;;;;26.36;38.55;97039.63;5037321;28;20055;-78
2022/07/17 07:43:38;;;;;;;4.28;2.30;;;;;;;26.62;37.73;97038.25;5064639;28;20036;-78
2022/07/17 07:46:03;;;;;;;3.25;2.03;;;;;;;25.60;39.46;97042.31;5042751;28;20031;-79
2022/07/17 07:48:29;;;;;;;9.63;1.98;;;;;;;27.11;37.20;97045.84;5052681;28;20029;-78
2022/07/17 07:50:55;;;;;;;3.20;1.77;;;;;;;27.45;36.56;97052.91;5054606;28;20077;-78
2022/07/17 07:53:21;;;;;;;5.50;2.40;;;;;;;27.48;36.02;97049.72;5045411;28;20039;-78
2022/07/17 07:55:46;;;;;;;5.38;1.90;;;;;;;27.08;35.67;97044.44;5028592;28;20028;-78
2022/07/17 07:58:13;;;;;;;4.82;1.52;;;;;;;26.50;36.73;97048.28;5072730;28;20796;-79
2022/07/17 08:00:40;;;;;;;3.28;1.55;;;;;;;26.62;35.98;97053.63;5067381;28;20040;-79
2022/07/17 08:03:06;;;;;;;6.47;2.63;;;;;;;28.08;34.74;97053.56;5057067;28;20276;-79
2022/07/17 08:05:33;;;;;;;8.98;5.60;;;;;;;27.44;35.32;97059.38;5037756;28;20040;-79
2022/07/17 08:07:59;;;;;;;3.78;1.80;;;;;;;27.80;35.55;97059.94;5058651;28;20093;-79
2022/07/17 08:10:25;;;;;;;3.67;2.10;;;;;;;28.69;33.72;97056.19;5053224;28;20392;-79
2022/07/17 08:12:52;;;;;;;3.80;1.60;;;;;;;29.01;33.19;97058.97;5034484;28;20039;-79
2022/07/17 08:15:20;;;;;;;4.30;1.83;;;;;;;29.08;32.74;97064.19;5073811;28;20028;-80
2022/07/17 08:17:48;;;;;;;5.22;1.50;;;;;;;28.67;33.23;97069.13;5062904;28;20032;-79
2022/07/17 08:20:14;;;;;;;3.80;1.95;;;;;;;29.22;31.70;97068.09;5078481;28;20051;-80
2022/07/17 08:22:45;;;;;;;2.65;1.73;;;;;;;27.87;32.64;97060.59;5049186;28;20055;-79
2022/07/17 08:25:11;;;;;;;4.07;2.05;;;;;;;29.16;32.07;97055.56;5042270;28;20051;-79
2022/07/17 08:27:39;;;;;;;5.25;1.60;;;;;;;28.48;31.15;97060.56;5056111;28;20029;-79
2022/07/17 08:30:07;;;;;;;3.28;1.90;;;;;;;29.92;30.27;97057.22;5040878;28;20032;-78
2022/07/17 08:32:33;;;;;;;3.35;1.60;;;;;;;29.48;29.67;97054.75;5034879;28;20037;-79
2022/07/17 08:34:59;;;;;;;2.47;1.50;;;;;;;29.68;29.86;97052.19;5075564;28;20024;-79
2022/07/17 08:37:25;;;;;;;3.47;1.63;;;;;;;29.46;29.43;97057.69;5057601;28;20089;-79
2022/07/17 08:39:51;;;;;;;4.45;2.00;;;;;;;30.38;29.54;97050.09;5081927;28;20055;-79
2022/07/17 08:42:17;;;;;;;3.05;1.75;;;;;;;29.97;29.01;97057.22;5077142;28;21066;-79
2022/07/17 08:44:44;;;;;;;6.53;1.80;;;;;;;30.20;29.12;97056.81;5076314;28;20021;-79
2022/07/17 08:47:11;;;;;;;3.05;1.70;;;;;;;28.60;29.80;97066.63;5057633;28;20028;-78
2022/07/17 08:49:45;;;;;;;3.30;1.45;;;;;;;28.67;29.48;97058.31;5080993;28;20035;-78
2022/07/17 08:52:15;;;;;;;2.53;1.40;;;;;;;28.93;29.65;97056.69;5040139;28;20490;-79
2022/07/17 08:54:41;;;;;;;4.43;1.70;;;;;;;28.78;29.42;97053.84;5054336;28;20032;-78
2022/07/17 08:57:09;;;;;;;3.78;1.52;;;;;;;29.96;28.47;97061.03;5049033;28;20036;-79
2022/07/17 08:59:35;;;;;;;2.13;1.48;;;;;;;30.94;28.18;97050.28;5057320;28;20032;-77
2022/07/17 09:02:00;;;;;;;4.03;2.10;;;;;;;30.67;26.96;97053.19;5040485;28;20094;-79
2022/07/17 09:04:27;;;;;;;4.43;1.90;;;;;;;30.83;26.23;97059.50;5038872;28;20105;-79
2022/07/17 09:07:04;;;;;;;2.85;1.52;;;;;;;30.57;26.88;97055.88;5071725;28;20055;-78
2022/07/17 09:09:30;;;;;;;2.42;1.50;;;;;;;29.71;27.03;97067.09;5059236;28;20043;-79
2022/07/17 09:12:02;;;;;;;2.60;1.60;;;;;;;30.64;26.11;97059.16;5070765;28;20429;-78
2022/07/17 09:14:40;;;;;;;2.45;1.60;;;;;;;31.43;25.78;97059.84;5064753;28;20028;-79
2022/07/17 09:17:07;;;;;;;2.97;1.60;;;;;;;31.50;25.29;97060.38;5040852;28;20056;-78
2022/07/17 09:19:36;;;;;;;3.42;1.40;;;;;;;30.65;25.22;97071.66;5043569;28;20027;-78
2022/07/17 09:22:07;;;;;;;3.03;1.40;;;;;;;29.16;24.82;97069.09;5076843;28;20036;-78
2022/07/17 09:24:43;;;;;;;2.42;1.40;;;;;;;29.11;24.99;97074.50;5035590;28;20040;-79
2022/07/17 09:27:14;;;;;;;6.60;1.67;;;;;;;29.08;25.85;97066.88;5052087;28;20044;-78
2022/07/17 09:29:54;;;;;;;2.70;1.50;;;;;;;28.65;26.56;97074.00;5049719;28;20037;-79
2022/07/17 09:32:26;;;;;;;2.70;1.45;;;;;;;30.01;25.56;97061.03;5051619;28;20460;-79
2022/07/17 09:34:54;;;;;;;2.00;1.40;;;;;;;29.14;26.62;97057.69;5035833;28;20044;-79
2022/07/17 09:37:24;;;;;;;2.30;1.30;;;;;;;28.91;25.49;97069.69;5039940;28;20032;-79
2022/07/17 09:39:51;;;;;;;2.53;1.65;;;;;;;29.24;25.13;97063.22;5063599;28;20032;-78
2022/07/17 09:42:30;;;;;;;2.17;1.20;;;;;;;30.57;23.46;97058.59;5078430;28;20638;-79
2022/07/17 09:44:56;;;;;;;2.38;1.38;;;;;;;30.37;23.93;97058.53;5076545;28;20032;-78
2022/07/17 09:47:24;;;;;;;3.20;1.40;;;;;;;30.94;23.34;97063.84;5079310;28;20501;-79
2022/07/17 09:49:53;;;;;;;2.92;1.50;;;;;;;30.54;23.88;97056.41;5096392;28;20043;-79
2022/07/17 09:52:20;;;;;;;4.72;1.33;;;;;;;31.48;22.45;97057.09;5064480;28;20043;-79
2022/07/17 09:54:48;;;;;;;2.58;1.38;;;;;;;29.79;24.25;97056.59;5060814;28;20842;-79
2022/07/17 09:57:16;;;;;;;2.25;1.40;;;;;;;30.36;23.94;97056.91;5058671;28;20122;-79
2022/07/17 09:59:43;;;;;;;1.63;1.30;;;;;;;31.06;23.57;97047.31;5089709;28;20047;-79
2022/07/17 10:02:10;;;;;;;3.20;1.48;;;;;;;31.10;23.59;97048.38;5059089;28;20032;-79
2022/07/17 10:04:36;;;;;;;4.38;1.40;;;;;;;32.10;22.46;97045.03;5059020;28;20169;-79
2022/07/17 10:07:05;;;;;;;3.00;2.05;;;;;;;32.06;22.65;97049.41;5053725;28;20032;-79
2022/07/17 10:09:32;;;;;;;1.92;1.23;;;;;;;31.29;21.59;97045.97;5052348;28;20036;-79
2022/07/17 10:12:00;;;;;;;2.38;1.40;;;;;;;30.86;21.88;97039.16;5044754;28;20033;-79
2022/07/17 10:14:26;;;;;;;2.38;1.30;;;;;;;31.17;21.59;97039.97;5047784;28;20246;-79
2022/07/17 10:16:52;;;;;;;4.75;1.15;;;;;;;28.84;24.04;97052.78;5055397;28;20028;-78
2022/07/17 10:19:23;;;;;;;2.10;1.40;;;;;;;29.72;22.74;97047.88;5066567;28;20024;-78
2022/07/17 10:22:01;;;;;;;2.42;1.20;;;;;;;30.72;22.34;97034.19;5075782;28;20064;-79
2022/07/17 10:24:29;;;;;;;2.88;1.33;;;;;;;29.68;24.40;97044.06;5054263;28;20090;-79
2022/07/17 10:26:55;;;;;;;2.92;1.73;;;;;;;31.02;23.49;97034.53;5046519;28;20107;-80
2022/07/17 10:29:38;;;;;;;2.70;1.40;;;;;;;31.43;22.61;97035.38;5052125;28;20202;-78
2022/07/17 10:32:14;;;;;;;6.75;2.75;;;;;;;32.17;22.59;97040.13;5043676;28;20549;-75
2022/07/17 10:34:44;;;;;;;4.93;1.50;;;;;;;31.28;22.72;97038.06;5041045;28;20032;-79
2022/07/17 10:37:18;;;;;;;2.67;1.20;;;;;;;31.53;21.78;97032.66;5048372;28;20036;-79
2022/07/17 10:40:06;;;;;;;2.08;1.20;;;;;;;31.56;21.02;97026.66;5063871;28;20401;-79
2022/07/17 10:42:51;;;;;;;4.32;1.73;;;;;;;31.88;21.39;97029.03;5039674;28;20219;-79
2022/07/17 10:45:46;;;;;;;2.88;1.52;;;;;;;31.79;21.36;97033.41;5047723;28;20478;-78
2022/07/17 10:48:22;;;;;;;2.55;1.20;;;;;;;33.32;19.64;97029.91;5058808;28;20032;-81
2022/07/17 10:50:54;;;;;;;2.28;1.30;;;;;;;33.47;20.27;97028.16;5069300;28;20029;-79
2022/07/17 10:53:33;;;;;;;1.20;0.93;;;;;;;34.03;18.84;97031.13;5067732;28;20032;-79
2022/07/17 10:56:04;;;;;;;1.55;1.23;;;;;;;33.81;19.09;97025.38;5056955;28;20035;-79
2022/07/17 10:58:32;;;;;;;1.97;1.30;;;;;;;33.63;18.35;97020.66;5033074;28;20041;-76
2022/07/17 11:01:06;;;;;;;3.25;1.50;;;;;;;33.43;18.79;97027.88;5057850;28;20088;-77
2022/07/17 11:03:38;;;;;;;3.00;1.80;;;;;;;32.28;20.34;97029.19;5051620;28;20043;-78
2022/07/17 11:06:27;;;;;;;4.93;2.55;;;;;;;32.75;19.27;97038.75;5071762;28;20508;-77
2022/07/17 11:08:56;;;;;;;2.00;1.30;;;;;;;33.01;19.12;97036.72;5049743;28;20060;-77
2022/07/17 11:11:34;;;;;;;2.40;1.40;;;;;;;33.07;19.22;97030.94;5058108;28;20075;-77
2022/07/17 11:14:25;;;;;;;3.13;1.20;;;;;;;33.58;19.14;97026.16;5055111;28;20032;-77
2022/07/17 11:16:59;;;;;;;2.30;1.20;;;;;;;31.29;21.62;97034.25;5065323;28;20033;-77
2022/07/17 11:19:27;;;;;;;1.50;1.10;;;;;;;32.24;21.12;97036.28;5070018;28;20038;-77
2022/07/17 11:21:55;;;;;;;2.35;1.33;;;;;;;30.86;22.12;97028.28;5081081;28;20051;-78
2022/07/17 11:24:34;;;;;;;2.47;1.40;;;;;;;30.80;22.47;97018.50;5069754;28;20470;-78
2022/07/17 11:27:00;;;;;;;2.83;1.27;;;;;;;31.61;22.06;97018.47;5056012;28;20052;-77
2022/07/17 11:29:26;;;;;;;1.70;1.10;;;;;;;31.38;22.20;97013.63;5067068;28;20110;-78
2022/07/17 11:31:56;;;;;;;2.42;1.38;;;;;;;32.20;21.99;97013.44;5071811;28;20028;-78